sensor_id;sensor_type;location;lat;lon;timestamp;P1;durP1;ratioP1;P2;durP2;ratioP2
21827;SDS011;11076;47.942;11.804;2024-02-23T00:03:08;0.60;;;0.60;;
21827;SDS011;11076;47.942;11.804;2024-02-23T00:08:12;660.58;;;312.65;;
21827;SDS011;11076;47.942;11.804;2024-02-23T00:13:15;655.30;;;323.37;;
21827;SDS011;11076;47.942;11.804;2024-02-23T00:18:17;529.63;;;244.10;;
21827;SDS011;11076;47.942;11.804;2024-02-23T00:23:20;296.70;;;103.20;;
21827;SDS011;11076;47.942;11.804;2024-02-23T06:57:41;1.13;;;0.80;;
21827;SDS011;11076;47.942;11.804;2024-02-23T07:02:43;1.97;;;1.07;;
21827;SDS011;11076;47.942;11.804;2024-02-23T07:07:45;0.83;;;0.60;;
21827;SDS011;11076;47.942;11.804;2024-02-23T07:12:48;1.57;;;0.60;;
21827;SDS011;11076;47.942;11.804;2024-02-23T07:17:50;0.57;;;0.50;;
21827;SDS011;11076;47.942;11.804;2024-02-23T07:22:53;1.70;;;0.70;;
21827;SDS011;11076;47.942;11.804;2024-02-23T07:27:56;2.23;;;0.60;;
21827;SDS011;11076;47.942;11.804;2024-02-23T07:32:58;0.67;;;0.67;;
21827;SDS011;11076;47.942;11.804;2024-02-23T07:38:01;0.50;;;0.50;;
21827;SDS011;11076;47.942;11.804;2024-02-23T07:43:03;3.13;;;0.60;;
21827;SDS011;11076;47.942;11.804;2024-02-23T07:48:06;0.60;;;0.60;;
21827;SDS011;11076;47.942;11.804;2024-02-23T07:53:10;0.60;;;0.60;;
21827;SDS011;11076;47.942;11.804;2024-02-23T07:58:13;0.70;;;0.70;;
21827;SDS011;11076;47.942;11.804;2024-02-23T08:03:15;0.70;;;0.70;;
21827;SDS011;11076;47.942;11.804;2024-02-23T08:08:18;4.63;;;1.30;;
21827;SDS011;11076;47.942;11.804;2024-02-23T08:13:20;2.77;;;1.47;;
21827;SDS011;11076;47.942;11.804;2024-02-23T08:18:23;2.43;;;1.30;;
21827;SDS011;11076;47.942;11.804;2024-02-23T08:23:26;5.57;;;1.13;;
21827;SDS011;11076;47.942;11.804;2024-02-23T08:28:28;1.97;;;0.80;;
21827;SDS011;11076;47.942;11.804;2024-02-23T08:33:30;1.57;;;0.80;;
21827;SDS011;11076;47.942;11.804;2024-02-23T08:38:33;0.77;;;0.70;;
21827;SDS011;11076;47.942;11.804;2024-02-23T08:43:36;2.57;;;0.73;;
21827;SDS011;11076;47.942;11.804;2024-02-23T08:48:38;0.60;;;0.60;;
21827;SDS011;11076;47.942;11.804;2024-02-23T08:53:40;0.50;;;0.50;;
21827;SDS011;11076;47.942;11.804;2024-02-23T08:58:43;0.73;;;0.63;;
21827;SDS011;11076;47.942;11.804;2024-02-23T09:03:45;2.53;;;0.67;;
21827;SDS011;11076;47.942;11.804;2024-02-23T09:08:48;0.73;;;0.60;;
21827;SDS011;11076;47.942;11.804;2024-02-23T09:13:50;1.70;;;0.57;;
21827;SDS011;11076;47.942;11.804;2024-02-23T09:18:52;0.87;;;0.80;;
21827;SDS011;11076;47.942;11.804;2024-02-23T09:23:55;3.50;;;0.70;;
21827;SDS011;11076;47.942;11.804;2024-02-23T09:28:57;1.63;;;0.80;;
21827;SDS011;11076;47.942;11.804;2024-02-23T09:34:00;0.60;;;0.60;;
21827;SDS011;11076;47.942;11.804;2024-02-23T09:39:02;0.73;;;0.73;;
21827;SDS011;11076;47.942;11.804;2024-02-23T09:44:06;1.43;;;1.17;;
21827;SDS011;11076;47.942;11.804;2024-02-23T21:55:54;86.35;;;38.80;;
21827;SDS011;11076;47.942;11.804;2024-02-23T22:00:57;13.00;;;6.53;;
21827;SDS011;11076;47.942;11.804;2024-02-23T22:05:59;55.13;;;25.83;;
21827;SDS011;11076;47.942;11.804;2024-02-23T22:46:18;2.70;;;2.50;;
21827;SDS011;11076;47.942;11.804;2024-02-23T22:51:20;205.50;;;101.57;;
21827;SDS011;11076;47.942;11.804;2024-02-23T22:56:22;134.47;;;64.57;;
21827;SDS011;11076;47.942;11.804;2024-02-23T23:01:25;28.27;;;12.40;;
21827;SDS011;11076;47.942;11.804;2024-02-23T23:06:28;3.93;;;2.40;;
21827;SDS011;11076;47.942;11.804;2024-02-23T23:11:31;3.00;;;2.70;;
21827;SDS011;11076;47.942;11.804;2024-02-23T23:16:34;14.60;;;7.97;;
21827;SDS011;11076;47.942;11.804;2024-02-23T23:21:36;109.10;;;49.20;;
21827;SDS011;11076;47.942;11.804;2024-02-23T23:26:39;405.43;;;114.13;;
21827;SDS011;11076;47.942;11.804;2024-02-23T23:31:42;98.50;;;31.53;;
21827;SDS011;11076;47.942;11.804;2024-02-23T23:36:44;127.50;;;59.77;;
21827;SDS011;11076;47.942;11.804;2024-02-23T23:41:47;144.77;;;62.90;;
21827;SDS011;11076;47.942;11.804;2024-02-23T23:46:51;93.63;;;39.23;;
21827;SDS011;11076;47.942;11.804;2024-02-23T23:51:53;214.60;;;80.63;;
21827;SDS011;11076;47.942;11.804;2024-02-23T23:56:57;153.20;;;70.37;;
